sensor_id;sensor_type;location;lat;lon;timestamp;temperature;humidity
2955;DHT22;1487;51.470;6.938;2022-12-20T00:00:45;11.10;99.90
2955;DHT22;1487;51.470;6.938;2022-12-20T00:03:12;11.10;99.90
2955;DHT22;1487;51.470;6.938;2022-12-20T00:05:40;11.10;99.90
2955;DHT22;1487;51.470;6.938;2022-12-20T00:08:08;11.10;99.90
2955;DHT22;1487;51.470;6.938;2022-12-20T00:10:35;11.10;99.90
2955;DHT22;1487;51.470;6.938;2022-12-20T00:13:04;11.10;99.90
2955;DHT22;1487;51.470;6.938;2022-12-20T00:15:31;11.20;99.90
2955;DHT22;1487;51.470;6.938;2022-12-20T00:17:58;11.20;99.90
2955;DHT22;1487;51.470;6.938;2022-12-20T00:20:26;11.20;99.90
2955;DHT22;1487;51.470;6.938;2022-12-20T00:22:53;11.20;99.90
2955;DHT22;1487;51.470;6.938;2022-12-20T00:25:20;11.20;99.90
2955;DHT22;1487;51.470;6.938;2022-12-20T00:27:48;11.20;99.90
2955;DHT22;1487;51.470;6.938;2022-12-20T00:30:16;11.20;99.90
2955;DHT22;1487;51.470;6.938;2022-12-20T00:32:44;11.10;99.90
2955;DHT22;1487;51.470;6.938;2022-12-20T00:35:11;11.10;99.90
2955;DHT22;1487;51.470;6.938;2022-12-20T00:37:38;11.00;99.90
2955;DHT22;1487;51.470;6.938;2022-12-20T00:40:06;11.00;99.90
2955;DHT22;1487;51.470;6.938;2022-12-20T00:42:33;11.00;99.90
2955;DHT22;1487;51.470;6.938;2022-12-20T00:45:01;11.10;99.90
2955;DHT22;1487;51.470;6.938;2022-12-20T00:47:29;11.10;99.90
2955;DHT22;1487;51.470;6.938;2022-12-20T00:49:56;11.00;99.90
2955;DHT22;1487;51.470;6.938;2022-12-20T00:52:23;11.00;99.90
2955;DHT22;1487;51.470;6.938;2022-12-20T00:54:50;11.00;99.90
2955;DHT22;1487;51.470;6.938;2022-12-20T00:57:17;11.00;99.90
2955;DHT22;1487;51.470;6.938;2022-12-20T00:59:44;11.00;99.90
2955;DHT22;1487;51.470;6.938;2022-12-20T01:02:10;11.00;99.90
2955;DHT22;1487;51.470;6.938;2022-12-20T01:04:39;11.00;99.90
2955;DHT22;1487;51.470;6.938;2022-12-20T01:07:06;11.00;99.90
2955;DHT22;1487;51.470;6.938;2022-12-20T01:09:34;11.00;99.90
2955;DHT22;1487;51.470;6.938;2022-12-20T01:12:01;10.90;99.90
2955;DHT22;1487;51.470;6.938;2022-12-20T01:14:27;11.00;99.90
2955;DHT22;1487;51.470;6.938;2022-12-20T01:16:56;10.90;99.90
2955;DHT22;1487;51.470;6.938;2022-12-20T01:19:22;11.00;99.90
2955;DHT22;1487;51.470;6.938;2022-12-20T01:21:51;11.00;99.90
2955;DHT22;1487;51.470;6.938;2022-12-20T01:24:18;11.00;99.90
2955;DHT22;1487;51.470;6.938;2022-12-20T01:26:46;11.00;99.90
2955;DHT22;1487;51.470;6.938;2022-12-20T01:29:14;11.00;99.90
2955;DHT22;1487;51.470;6.938;2022-12-20T01:31:41;11.00;99.90
2955;DHT22;1487;51.470;6.938;2022-12-20T01:34:08;11.10;99.90
2955;DHT22;1487;51.470;6.938;2022-12-20T01:36:36;11.10;99.90
2955;DHT22;1487;51.470;6.938;2022-12-20T01:39:07;11.10;99.90
2955;DHT22;1487;51.470;6.938;2022-12-20T01:41:36;11.10;99.90
2955;DHT22;1487;51.470;6.938;2022-12-20T01:44:05;11.10;99.90
2955;DHT22;1487;51.470;6.938;2022-12-20T01:46:34;11.20;99.90
2955;DHT22;1487;51.470;6.938;2022-12-20T01:49:04;11.20;99.90
2955;DHT22;1487;51.470;6.938;2022-12-20T01:51:35;11.20;99.90
2955;DHT22;1487;51.470;6.938;2022-12-20T01:54:08;11.20;99.90
2955;DHT22;1487;51.470;6.938;2022-12-20T01:56:37;11.20;99.90
2955;DHT22;1487;51.470;6.938;2022-12-20T01:59:05;11.20;99.90
2955;DHT22;1487;51.470;6.938;2022-12-20T02:01:33;11.10;99.90
2955;DHT22;1487;51.470;6.938;2022-12-20T02:04:00;11.20;99.90
2955;DHT22;1487;51.470;6.938;2022-12-20T02:06:28;11.20;99.90
2955;DHT22;1487;51.470;6.938;2022-12-20T02:08:58;11.20;99.90
2955;DHT22;1487;51.470;6.938;2022-12-20T02:11:47;11.20;99.90
2955;DHT22;1487;51.470;6.938;2022-12-20T02:14:24;11.10;99.90
2955;DHT22;1487;51.470;6.938;2022-12-20T02:16:57;11.10;99.90
2955;DHT22;1487;51.470;6.938;2022-12-20T02:19:46;11.00;99.90
2955;DHT22;1487;51.470;6.938;2022-12-20T02:22:24;11.00;99.90
2955;DHT22;1487;51.470;6.938;2022-12-20T02:25:04;11.00;99.90
2955;DHT22;1487;51.470;6.938;2022-12-20T02:27:58;11.00;99.90
2955;DHT22;1487;51.470;6.938;2022-12-20T02:30:31;11.00;99.90
2955;DHT22;1487;51.470;6.938;2022-12-20T02:33:02;11.00;99.90
2955;DHT22;1487;51.470;6.938;2022-12-20T02:35:32;11.00;99.90
2955;DHT22;1487;51.470;6.938;2022-12-20T02:38:01;11.00;99.90
2955;DHT22;1487;51.470;6.938;2022-12-20T02:40:31;11.00;99.90
2955;DHT22;1487;51.470;6.938;2022-12-20T02:43:02;10.90;99.90
2955;DHT22;1487;51.470;6.938;2022-12-20T02:45:52;10.90;99.90
2955;DHT22;1487;51.470;6.938;2022-12-20T02:48:19;10.90;99.90
2955;DHT22;1487;51.470;6.938;2022-12-20T02:50:49;10.80;99.90
2955;DHT22;1487;51.470;6.938;2022-12-20T02:53:18;10.70;99.90
2955;DHT22;1487;51.470;6.938;2022-12-20T02:55:48;10.60;99.90
2955;DHT22;1487;51.470;6.938;2022-12-20T02:58:22;10.50;99.90
2955;DHT22;1487;51.470;6.938;2022-12-20T03:00:54;10.40;99.90
2955;DHT22;1487;51.470;6.938;2022-12-20T03:03:22;10.40;99.90
2955;DHT22;1487;51.470;6.938;2022-12-20T03:05:50;10.40;99.90
2955;DHT22;1487;51.470;6.938;2022-12-20T03:08:18;10.40;99.90
2955;DHT22;1487;51.470;6.938;2022-12-20T03:10:45;10.30;99.90
2955;DHT22;1487;51.470;6.938;2022-12-20T03:13:12;10.20;99.90
2955;DHT22;1487;51.470;6.938;2022-12-20T03:15:39;10.00;99.90
2955;DHT22;1487;51.470;6.938;2022-12-20T03:18:07;9.90;99.90
2955;DHT22;1487;51.470;6.938;2022-12-20T03:20:34;9.80;99.90
2955;DHT22;1487;51.470;6.938;2022-12-20T03:23:01;9.80;99.90
2955;DHT22;1487;51.470;6.938;2022-12-20T03:25:28;9.80;99.90
2955;DHT22;1487;51.470;6.938;2022-12-20T03:27:55;9.70;99.90
2955;DHT22;1487;51.470;6.938;2022-12-20T03:30:22;9.70;99.90
2955;DHT22;1487;51.470;6.938;2022-12-20T03:32:49;9.60;99.90
2955;DHT22;1487;51.470;6.938;2022-12-20T03:35:18;9.60;99.90
2955;DHT22;1487;51.470;6.938;2022-12-20T03:37:44;9.60;99.90
2955;DHT22;1487;51.470;6.938;2022-12-20T03:40:12;9.60;99.90
2955;DHT22;1487;51.470;6.938;2022-12-20T03:42:40;9.50;99.90
2955;DHT22;1487;51.470;6.938;2022-12-20T03:45:08;9.40;99.90
2955;DHT22;1487;51.470;6.938;2022-12-20T03:47:35;9.40;99.90
2955;DHT22;1487;51.470;6.938;2022-12-20T03:50:02;9.40;99.90
2955;DHT22;1487;51.470;6.938;2022-12-20T03:52:30;9.40;99.90
2955;DHT22;1487;51.470;6.938;2022-12-20T03:54:57;9.40;99.90
2955;DHT22;1487;51.470;6.938;2022-12-20T03:57:24;9.40;99.90
2955;DHT22;1487;51.470;6.938;2022-12-20T03:59:51;9.40;99.90
2955;DHT22;1487;51.470;6.938;2022-12-20T04:02:19;9.40;99.90
2955;DHT22;1487;51.470;6.938;2022-12-20T04:04:48;9.40;99.90
2955;DHT22;1487;51.470;6.938;2022-12-20T04:07:15;9.40;99.90
2955;DHT22;1487;51.470;6.938;2022-12-20T04:09:44;9.50;99.90
2955;DHT22;1487;51.470;6.938;2022-12-20T04:12:10;9.50;99.90
2955;DHT22;1487;51.470;6.938;2022-12-20T04:14:37;9.60;99.90
2955;DHT22;1487;51.470;6.938;2022-12-20T04:17:04;9.60;99.90
2955;DHT22;1487;51.470;6.938;2022-12-20T04:19:31;9.60;99.90
2955;DHT22;1487;51.470;6.938;2022-12-20T04:21:58;9.60;99.90
2955;DHT22;1487;51.470;6.938;2022-12-20T04:24:25;9.60;99.90
2955;DHT22;1487;51.470;6.938;2022-12-20T04:26:53;9.50;99.90
2955;DHT22;1487;51.470;6.938;2022-12-20T04:29:20;9.50;99.90
2955;DHT22;1487;51.470;6.938;2022-12-20T04:31:47;9.50;99.90
2955;DHT22;1487;51.470;6.938;2022-12-20T04:34:13;9.50;99.90
2955;DHT22;1487;51.470;6.938;2022-12-20T04:36:40;9.60;99.90
2955;DHT22;1487;51.470;6.938;2022-12-20T04:39:07;9.60;99.90
2955;DHT22;1487;51.470;6.938;2022-12-20T04:41:34;9.60;99.90
2955;DHT22;1487;51.470;6.938;2022-12-20T04:44:02;9.60;99.90
2955;DHT22;1487;51.470;6.938;2022-12-20T04:46:31;9.70;99.90
2955;DHT22;1487;51.470;6.938;2022-12-20T04:48:58;9.70;99.90
2955;DHT22;1487;51.470;6.938;2022-12-20T04:51:25;9.60;99.90
2955;DHT22;1487;51.470;6.938;2022-12-20T04:53:52;9.60;99.90
2955;DHT22;1487;51.470;6.938;2022-12-20T04:56:19;9.60;99.90
2955;DHT22;1487;51.470;6.938;2022-12-20T04:58:47;9.60;99.90
2955;DHT22;1487;51.470;6.938;2022-12-20T05:01:16;9.60;99.90
2955;DHT22;1487;51.470;6.938;2022-12-20T05:03:44;9.60;99.90
2955;DHT22;1487;51.470;6.938;2022-12-20T05:06:11;9.60;99.90
2955;DHT22;1487;51.470;6.938;2022-12-20T05:08:39;9.60;99.90
2955;DHT22;1487;51.470;6.938;2022-12-20T05:11:06;9.60;99.90
2955;DHT22;1487;51.470;6.938;2022-12-20T05:13:34;9.60;99.90
2955;DHT22;1487;51.470;6.938;2022-12-20T05:16:01;9.60;99.90
2955;DHT22;1487;51.470;6.938;2022-12-20T05:18:30;9.60;99.90
2955;DHT22;1487;51.470;6.938;2022-12-20T05:20:57;9.60;99.90
2955;DHT22;1487;51.470;6.938;2022-12-20T05:23:42;9.60;99.90
2955;DHT22;1487;51.470;6.938;2022-12-20T05:26:30;9.60;99.90
2955;DHT22;1487;51.470;6.938;2022-12-20T05:28:57;9.60;99.90
2955;DHT22;1487;51.470;6.938;2022-12-20T05:31:24;9.60;99.90
2955;DHT22;1487;51.470;6.938;2022-12-20T05:33:52;9.60;99.90
2955;DHT22;1487;51.470;6.938;2022-12-20T05:36:19;9.60;99.90
2955;DHT22;1487;51.470;6.938;2022-12-20T05:38:46;9.60;99.90
2955;DHT22;1487;51.470;6.938;2022-12-20T05:41:13;9.60;99.90
2955;DHT22;1487;51.470;6.938;2022-12-20T05:43:40;9.60;99.90
2955;DHT22;1487;51.470;6.938;2022-12-20T05:46:07;9.60;99.90
2955;DHT22;1487;51.470;6.938;2022-12-20T05:48:35;9.70;99.90
2955;DHT22;1487;51.470;6.938;2022-12-20T05:51:03;9.70;99.90
2955;DHT22;1487;51.470;6.938;2022-12-20T05:53:30;9.70;99.90
2955;DHT22;1487;51.470;6.938;2022-12-20T05:55:58;9.70;99.90
2955;DHT22;1487;51.470;6.938;2022-12-20T05:58:26;9.70;99.90
2955;DHT22;1487;51.470;6.938;2022-12-20T06:00:53;9.70;99.90
2955;DHT22;1487;51.470;6.938;2022-12-20T06:03:20;9.70;99.90
2955;DHT22;1487;51.470;6.938;2022-12-20T06:05:47;9.80;99.90
2955;DHT22;1487;51.470;6.938;2022-12-20T06:08:15;9.80;99.90
2955;DHT22;1487;51.470;6.938;2022-12-20T06:10:42;9.80;99.90
2955;DHT22;1487;51.470;6.938;2022-12-20T06:13:09;9.90;99.90
2955;DHT22;1487;51.470;6.938;2022-12-20T06:15:36;9.90;99.90
2955;DHT22;1487;51.470;6.938;2022-12-20T06:18:04;9.90;99.90
2955;DHT22;1487;51.470;6.938;2022-12-20T06:20:31;9.90;99.90
2955;DHT22;1487;51.470;6.938;2022-12-20T06:22:58;9.90;99.90
2955;DHT22;1487;51.470;6.938;2022-12-20T06:25:26;9.90;99.90
2955;DHT22;1487;51.470;6.938;2022-12-20T06:27:53;10.00;99.90
2955;DHT22;1487;51.470;6.938;2022-12-20T06:30:21;10.10;99.90
2955;DHT22;1487;51.470;6.938;2022-12-20T06:32:47;10.10;99.90
2955;DHT22;1487;51.470;6.938;2022-12-20T06:35:14;10.10;99.90
2955;DHT22;1487;51.470;6.938;2022-12-20T06:37:42;10.10;99.90
2955;DHT22;1487;51.470;6.938;2022-12-20T06:40:13;10.20;99.90
2955;DHT22;1487;51.470;6.938;2022-12-20T06:42:41;10.10;99.90
2955;DHT22;1487;51.470;6.938;2022-12-20T06:45:08;10.20;99.90
2955;DHT22;1487;51.470;6.938;2022-12-20T06:47:35;10.20;99.90
2955;DHT22;1487;51.470;6.938;2022-12-20T06:50:04;10.30;99.90
2955;DHT22;1487;51.470;6.938;2022-12-20T06:52:31;10.30;99.90
2955;DHT22;1487;51.470;6.938;2022-12-20T06:54:58;10.30;99.90
2955;DHT22;1487;51.470;6.938;2022-12-20T06:57:25;10.30;99.90
2955;DHT22;1487;51.470;6.938;2022-12-20T06:59:53;10.40;99.90
2955;DHT22;1487;51.470;6.938;2022-12-20T07:02:20;10.40;99.90
2955;DHT22;1487;51.470;6.938;2022-12-20T07:04:46;10.40;99.90
2955;DHT22;1487;51.470;6.938;2022-12-20T07:07:13;10.40;99.90
2955;DHT22;1487;51.470;6.938;2022-12-20T07:09:42;10.40;99.90
2955;DHT22;1487;51.470;6.938;2022-12-20T07:12:09;10.40;99.90
2955;DHT22;1487;51.470;6.938;2022-12-20T07:14:36;10.40;99.90
2955;DHT22;1487;51.470;6.938;2022-12-20T07:17:04;10.40;99.90
2955;DHT22;1487;51.470;6.938;2022-12-20T07:19:31;10.50;99.90
2955;DHT22;1487;51.470;6.938;2022-12-20T07:21:58;10.50;99.90
2955;DHT22;1487;51.470;6.938;2022-12-20T07:24:25;10.40;99.90
2955;DHT22;1487;51.470;6.938;2022-12-20T07:26:52;10.50;99.90
2955;DHT22;1487;51.470;6.938;2022-12-20T07:29:19;10.50;99.90
2955;DHT22;1487;51.470;6.938;2022-12-20T07:31:46;10.50;99.90
2955;DHT22;1487;51.470;6.938;2022-12-20T07:34:14;10.50;99.90
2955;DHT22;1487;51.470;6.938;2022-12-20T07:36:41;10.40;99.90
2955;DHT22;1487;51.470;6.938;2022-12-20T07:39:08;10.50;99.90
2955;DHT22;1487;51.470;6.938;2022-12-20T07:41:35;10.60;99.90
2955;DHT22;1487;51.470;6.938;2022-12-20T07:44:02;10.60;99.90
2955;DHT22;1487;51.470;6.938;2022-12-20T07:46:29;10.60;99.90
2955;DHT22;1487;51.470;6.938;2022-12-20T07:48:55;10.60;99.90
2955;DHT22;1487;51.470;6.938;2022-12-20T07:51:26;10.60;99.90
2955;DHT22;1487;51.470;6.938;2022-12-20T07:53:58;10.70;99.90
2955;DHT22;1487;51.470;6.938;2022-12-20T07:56:26;10.60;99.90
2955;DHT22;1487;51.470;6.938;2022-12-20T07:58:55;10.60;99.90
2955;DHT22;1487;51.470;6.938;2022-12-20T08:01:24;10.60;99.90
2955;DHT22;1487;51.470;6.938;2022-12-20T08:03:56;10.50;99.90
2955;DHT22;1487;51.470;6.938;2022-12-20T08:06:26;10.60;99.90
2955;DHT22;1487;51.470;6.938;2022-12-20T08:08:56;10.50;99.90
2955;DHT22;1487;51.470;6.938;2022-12-20T08:11:24;10.50;99.90
2955;DHT22;1487;51.470;6.938;2022-12-20T08:13:52;10.50;99.90
2955;DHT22;1487;51.470;6.938;2022-12-20T08:16:19;10.50;99.90
2955;DHT22;1487;51.470;6.938;2022-12-20T08:18:46;10.60;99.90
2955;DHT22;1487;51.470;6.938;2022-12-20T08:21:13;10.70;99.90
2955;DHT22;1487;51.470;6.938;2022-12-20T08:23:41;10.60;99.90
2955;DHT22;1487;51.470;6.938;2022-12-20T08:26:08;10.70;99.90
2955;DHT22;1487;51.470;6.938;2022-12-20T08:28:35;10.80;99.90
2955;DHT22;1487;51.470;6.938;2022-12-20T08:31:03;10.80;99.90
2955;DHT22;1487;51.470;6.938;2022-12-20T08:33:31;10.90;99.90
2955;DHT22;1487;51.470;6.938;2022-12-20T08:35:58;10.90;99.90
2955;DHT22;1487;51.470;6.938;2022-12-20T08:38:27;10.90;99.90
2955;DHT22;1487;51.470;6.938;2022-12-20T08:41:01;11.00;99.90
2955;DHT22;1487;51.470;6.938;2022-12-20T08:43:28;11.00;99.90
2955;DHT22;1487;51.470;6.938;2022-12-20T08:45:55;11.00;99.90
2955;DHT22;1487;51.470;6.938;2022-12-20T08:48:22;11.10;99.90
2955;DHT22;1487;51.470;6.938;2022-12-20T08:50:53;11.10;99.90
2955;DHT22;1487;51.470;6.938;2022-12-20T08:53:21;11.10;99.90
2955;DHT22;1487;51.470;6.938;2022-12-20T08:55:47;11.20;99.90
2955;DHT22;1487;51.470;6.938;2022-12-20T08:58:16;11.20;99.90
2955;DHT22;1487;51.470;6.938;2022-12-20T09:00:42;11.20;99.90
2955;DHT22;1487;51.470;6.938;2022-12-20T09:03:10;11.30;99.90
2955;DHT22;1487;51.470;6.938;2022-12-20T09:05:43;11.20;99.90
2955;DHT22;1487;51.470;6.938;2022-12-20T09:08:11;11.20;99.90
2955;DHT22;1487;51.470;6.938;2022-12-20T09:10:38;11.30;99.90
2955;DHT22;1487;51.470;6.938;2022-12-20T09:13:05;11.30;99.90
2955;DHT22;1487;51.470;6.938;2022-12-20T09:15:34;11.30;99.90
2955;DHT22;1487;51.470;6.938;2022-12-20T09:18:01;11.30;99.90
2955;DHT22;1487;51.470;6.938;2022-12-20T09:20:28;11.30;99.90
2955;DHT22;1487;51.470;6.938;2022-12-20T09:22:57;11.30;99.90
2955;DHT22;1487;51.470;6.938;2022-12-20T09:25:24;11.30;99.90
2955;DHT22;1487;51.470;6.938;2022-12-20T09:27:52;11.40;99.90
2955;DHT22;1487;51.470;6.938;2022-12-20T09:30:19;11.40;99.90
2955;DHT22;1487;51.470;6.938;2022-12-20T09:32:48;11.40;99.90
2955;DHT22;1487;51.470;6.938;2022-12-20T09:35:15;11.30;99.90
2955;DHT22;1487;51.470;6.938;2022-12-20T09:37:42;11.30;99.90
2955;DHT22;1487;51.470;6.938;2022-12-20T09:40:15;11.30;99.90
2955;DHT22;1487;51.470;6.938;2022-12-20T09:42:43;11.20;99.90
2955;DHT22;1487;51.470;6.938;2022-12-20T09:45:24;11.20;99.90
2955;DHT22;1487;51.470;6.938;2022-12-20T09:47:54;11.20;99.90
2955;DHT22;1487;51.470;6.938;2022-12-20T09:50:27;11.20;99.90
2955;DHT22;1487;51.470;6.938;2022-12-20T09:53:10;11.10;99.90
2955;DHT22;1487;51.470;6.938;2022-12-20T09:55:45;11.10;99.90
2955;DHT22;1487;51.470;6.938;2022-12-20T09:58:27;11.10;99.90
2955;DHT22;1487;51.470;6.938;2022-12-20T10:00:57;11.10;99.90
2955;DHT22;1487;51.470;6.938;2022-12-20T10:03:29;11.00;99.90
2955;DHT22;1487;51.470;6.938;2022-12-20T10:05:59;11.00;99.90
2955;DHT22;1487;51.470;6.938;2022-12-20T10:08:43;11.00;99.90
2955;DHT22;1487;51.470;6.938;2022-12-20T10:11:20;11.00;99.90
2955;DHT22;1487;51.470;6.938;2022-12-20T10:13:58;11.00;99.90
2955;DHT22;1487;51.470;6.938;2022-12-20T10:16:38;11.00;99.90
2955;DHT22;1487;51.470;6.938;2022-12-20T10:19:29;11.00;99.90
2955;DHT22;1487;51.470;6.938;2022-12-20T10:22:07;11.00;99.90
2955;DHT22;1487;51.470;6.938;2022-12-20T10:24:38;11.00;99.90
2955;DHT22;1487;51.470;6.938;2022-12-20T10:27:11;11.00;99.90
2955;DHT22;1487;51.470;6.938;2022-12-20T10:29:40;11.10;99.90
2955;DHT22;1487;51.470;6.938;2022-12-20T10:32:12;11.20;99.90
2955;DHT22;1487;51.470;6.938;2022-12-20T10:34:45;11.30;99.90
2955;DHT22;1487;51.470;6.938;2022-12-20T10:37:14;11.30;99.90
2955;DHT22;1487;51.470;6.938;2022-12-20T10:39:42;11.30;99.90
2955;DHT22;1487;51.470;6.938;2022-12-20T10:42:31;11.30;99.90
2955;DHT22;1487;51.470;6.938;2022-12-20T10:45:02;11.30;99.90
2955;DHT22;1487;51.470;6.938;2022-12-20T10:47:36;11.30;99.90
2955;DHT22;1487;51.470;6.938;2022-12-20T10:50:15;11.30;99.90
2955;DHT22;1487;51.470;6.938;2022-12-20T10:52:43;11.30;99.90
2955;DHT22;1487;51.470;6.938;2022-12-20T10:55:34;11.30;99.90
2955;DHT22;1487;51.470;6.938;2022-12-20T10:58:05;11.30;99.90
2955;DHT22;1487;51.470;6.938;2022-12-20T11:00:38;11.30;99.90
2955;DHT22;1487;51.470;6.938;2022-12-20T11:03:13;11.30;99.90
2955;DHT22;1487;51.470;6.938;2022-12-20T11:05:52;11.30;99.90
2955;DHT22;1487;51.470;6.938;2022-12-20T11:08:20;11.30;99.90
2955;DHT22;1487;51.470;6.938;2022-12-20T11:10:49;11.40;99.90
2955;DHT22;1487;51.470;6.938;2022-12-20T11:13:22;11.40;99.90
2955;DHT22;1487;51.470;6.938;2022-12-20T11:15:51;11.40;99.90
2955;DHT22;1487;51.470;6.938;2022-12-20T11:18:28;11.30;99.90
2955;DHT22;1487;51.470;6.938;2022-12-20T11:21:07;11.30;99.90
2955;DHT22;1487;51.470;6.938;2022-12-20T11:23:40;11.30;99.90
2955;DHT22;1487;51.470;6.938;2022-12-20T11:26:21;11.30;99.90
2955;DHT22;1487;51.470;6.938;2022-12-20T11:29:06;11.30;99.90
2955;DHT22;1487;51.470;6.938;2022-12-20T11:31:45;11.40;99.90
2955;DHT22;1487;51.470;6.938;2022-12-20T11:34:34;11.40;99.90
2955;DHT22;1487;51.470;6.938;2022-12-20T11:37:17;11.40;99.90
2955;DHT22;1487;51.470;6.938;2022-12-20T11:39:53;11.40;99.90
2955;DHT22;1487;51.470;6.938;2022-12-20T11:42:28;11.50;99.90
2955;DHT22;1487;51.470;6.938;2022-12-20T11:45:03;11.50;99.90
2955;DHT22;1487;51.470;6.938;2022-12-20T11:47:48;11.40;99.90
2955;DHT22;1487;51.470;6.938;2022-12-20T11:50:39;11.40;99.90
2955;DHT22;1487;51.470;6.938;2022-12-20T11:53:15;11.40;99.90
2955;DHT22;1487;51.470;6.938;2022-12-20T11:55:45;11.40;99.90
2955;DHT22;1487;51.470;6.938;2022-12-20T11:58:17;11.50;99.90
2955;DHT22;1487;51.470;6.938;2022-12-20T12:00:51;11.40;99.90
2955;DHT22;1487;51.470;6.938;2022-12-20T12:03:26;11.40;99.90
2955;DHT22;1487;51.470;6.938;2022-12-20T12:05:57;11.50;99.90
2955;DHT22;1487;51.470;6.938;2022-12-20T12:08:30;11.50;99.90
2955;DHT22;1487;51.470;6.938;2022-12-20T12:11:04;11.50;99.90
2955;DHT22;1487;51.470;6.938;2022-12-20T12:13:35;11.60;99.90
2955;DHT22;1487;51.470;6.938;2022-12-20T12:16:07;11.60;99.90
2955;DHT22;1487;51.470;6.938;2022-12-20T12:18:37;11.70;99.90
2955;DHT22;1487;51.470;6.938;2022-12-20T12:21:08;11.80;99.90
2955;DHT22;1487;51.470;6.938;2022-12-20T12:23:46;11.90;99.90
2955;DHT22;1487;51.470;6.938;2022-12-20T12:26:19;11.90;99.90
2955;DHT22;1487;51.470;6.938;2022-12-20T12:28:51;12.00;99.90
2955;DHT22;1487;51.470;6.938;2022-12-20T12:31:23;12.00;99.90
2955;DHT22;1487;51.470;6.938;2022-12-20T12:34:03;12.10;99.90
2955;DHT22;1487;51.470;6.938;2022-12-20T12:39:55;12.10;99.90
2955;DHT22;1487;51.470;6.938;2022-12-20T12:42:50;12.20;99.90
2955;DHT22;1487;51.470;6.938;2022-12-20T12:45:25;12.30;99.90
2955;DHT22;1487;51.470;6.938;2022-12-20T12:47:55;12.30;99.90
2955;DHT22;1487;51.470;6.938;2022-12-20T12:50:27;12.30;99.90
2955;DHT22;1487;51.470;6.938;2022-12-20T12:52:56;12.30;99.90
2955;DHT22;1487;51.470;6.938;2022-12-20T12:55:40;12.30;99.90
2955;DHT22;1487;51.470;6.938;2022-12-20T12:58:32;12.40;99.90
2955;DHT22;1487;51.470;6.938;2022-12-20T13:01:00;12.40;99.90
2955;DHT22;1487;51.470;6.938;2022-12-20T13:03:44;12.40;99.90
2955;DHT22;1487;51.470;6.938;2022-12-20T13:06:50;12.20;99.90
2955;DHT22;1487;51.470;6.938;2022-12-20T13:09:35;12.10;99.90
2955;DHT22;1487;51.470;6.938;2022-12-20T13:18:24;11.40;99.90
2955;DHT22;1487;51.470;6.938;2022-12-20T13:21:27;11.20;99.90
2955;DHT22;1487;51.470;6.938;2022-12-20T13:27:03;11.00;99.90
2955;DHT22;1487;51.470;6.938;2022-12-20T13:29:33;11.00;99.90
2955;DHT22;1487;51.470;6.938;2022-12-20T13:32:00;10.90;99.90
2955;DHT22;1487;51.470;6.938;2022-12-20T13:34:38;10.90;99.90
2955;DHT22;1487;51.470;6.938;2022-12-20T13:37:25;10.80;99.90
2955;DHT22;1487;51.470;6.938;2022-12-20T13:39:53;10.80;99.90
2955;DHT22;1487;51.470;6.938;2022-12-20T13:42:31;10.80;99.90
2955;DHT22;1487;51.470;6.938;2022-12-20T13:45:02;10.80;99.90
2955;DHT22;1487;51.470;6.938;2022-12-20T13:47:38;10.70;99.90
2955;DHT22;1487;51.470;6.938;2022-12-20T13:50:35;10.70;99.90
2955;DHT22;1487;51.470;6.938;2022-12-20T13:53:05;10.60;99.90
2955;DHT22;1487;51.470;6.938;2022-12-20T13:55:35;10.60;99.90
2955;DHT22;1487;51.470;6.938;2022-12-20T13:58:10;10.50;99.90
2955;DHT22;1487;51.470;6.938;2022-12-20T14:00:38;10.40;99.90
2955;DHT22;1487;51.470;6.938;2022-12-20T14:03:18;10.50;99.90
2955;DHT22;1487;51.470;6.938;2022-12-20T14:05:47;10.50;99.90
2955;DHT22;1487;51.470;6.938;2022-12-20T14:08:16;10.50;99.90
2955;DHT22;1487;51.470;6.938;2022-12-20T14:10:43;10.50;99.90
2955;DHT22;1487;51.470;6.938;2022-12-20T14:13:19;10.50;99.90
2955;DHT22;1487;51.470;6.938;2022-12-20T14:15:47;10.40;99.90
2955;DHT22;1487;51.470;6.938;2022-12-20T14:18:20;10.40;99.90
2955;DHT22;1487;51.470;6.938;2022-12-20T14:20:51;10.40;99.90
2955;DHT22;1487;51.470;6.938;2022-12-20T14:23:21;10.30;99.90
2955;DHT22;1487;51.470;6.938;2022-12-20T14:25:50;10.30;99.90
2955;DHT22;1487;51.470;6.938;2022-12-20T14:28:28;10.30;99.90
2955;DHT22;1487;51.470;6.938;2022-12-20T14:30:57;10.20;99.90
2955;DHT22;1487;51.470;6.938;2022-12-20T14:33:29;10.20;99.90
2955;DHT22;1487;51.470;6.938;2022-12-20T14:36:07;10.20;99.90
2955;DHT22;1487;51.470;6.938;2022-12-20T14:38:34;10.20;99.90
2955;DHT22;1487;51.470;6.938;2022-12-20T14:41:01;10.20;99.90
2955;DHT22;1487;51.470;6.938;2022-12-20T14:43:32;10.20;99.90
2955;DHT22;1487;51.470;6.938;2022-12-20T14:46:07;10.20;99.90
2955;DHT22;1487;51.470;6.938;2022-12-20T14:48:34;10.20;99.90
2955;DHT22;1487;51.470;6.938;2022-12-20T14:51:03;10.10;99.90
2955;DHT22;1487;51.470;6.938;2022-12-20T14:53:30;10.10;99.90
2955;DHT22;1487;51.470;6.938;2022-12-20T14:55:57;10.00;99.90
2955;DHT22;1487;51.470;6.938;2022-12-20T14:58:26;10.10;99.90
2955;DHT22;1487;51.470;6.938;2022-12-20T15:00:56;10.10;99.90
2955;DHT22;1487;51.470;6.938;2022-12-20T15:03:24;10.10;99.90
2955;DHT22;1487;51.470;6.938;2022-12-20T15:05:52;10.10;99.90
2955;DHT22;1487;51.470;6.938;2022-12-20T15:08:23;10.10;99.90
2955;DHT22;1487;51.470;6.938;2022-12-20T15:10:54;10.10;99.90
2955;DHT22;1487;51.470;6.938;2022-12-20T15:13:25;10.10;99.90
2955;DHT22;1487;51.470;6.938;2022-12-20T15:15:53;10.00;99.90
2955;DHT22;1487;51.470;6.938;2022-12-20T15:18:20;10.10;99.90
2955;DHT22;1487;51.470;6.938;2022-12-20T15:20:58;10.10;99.90
2955;DHT22;1487;51.470;6.938;2022-12-20T15:23:27;10.10;99.90
2955;DHT22;1487;51.470;6.938;2022-12-20T15:25:55;10.10;99.90
2955;DHT22;1487;51.470;6.938;2022-12-20T15:28:23;10.00;99.90
2955;DHT22;1487;51.470;6.938;2022-12-20T15:30:51;10.00;99.90
2955;DHT22;1487;51.470;6.938;2022-12-20T15:33:22;10.10;99.90
2955;DHT22;1487;51.470;6.938;2022-12-20T15:35:50;10.00;99.90
2955;DHT22;1487;51.470;6.938;2022-12-20T15:38:18;10.00;99.90
2955;DHT22;1487;51.470;6.938;2022-12-20T15:40:49;10.10;99.90
2955;DHT22;1487;51.470;6.938;2022-12-20T15:43:19;10.10;99.90
2955;DHT22;1487;51.470;6.938;2022-12-20T15:45:47;10.10;99.90
2955;DHT22;1487;51.470;6.938;2022-12-20T15:48:17;10.10;99.90
2955;DHT22;1487;51.470;6.938;2022-12-20T15:50:48;10.00;99.90
2955;DHT22;1487;51.470;6.938;2022-12-20T15:53:16;10.00;99.90
2955;DHT22;1487;51.470;6.938;2022-12-20T15:55:49;10.00;99.90
2955;DHT22;1487;51.470;6.938;2022-12-20T15:58:16;9.90;99.90
2955;DHT22;1487;51.470;6.938;2022-12-20T16:00:43;10.00;99.90
2955;DHT22;1487;51.470;6.938;2022-12-20T16:03:13;10.00;99.90
2955;DHT22;1487;51.470;6.938;2022-12-20T16:05:41;10.00;99.90
2955;DHT22;1487;51.470;6.938;2022-12-20T16:08:08;10.00;99.90
2955;DHT22;1487;51.470;6.938;2022-12-20T16:10:35;10.00;99.90
2955;DHT22;1487;51.470;6.938;2022-12-20T16:13:03;10.00;99.90
2955;DHT22;1487;51.470;6.938;2022-12-20T16:15:32;10.00;99.90
2955;DHT22;1487;51.470;6.938;2022-12-20T16:18:00;10.00;99.90
2955;DHT22;1487;51.470;6.938;2022-12-20T16:20:27;10.10;99.90
2955;DHT22;1487;51.470;6.938;2022-12-20T16:22:54;10.10;99.90
2955;DHT22;1487;51.470;6.938;2022-12-20T16:25:26;10.10;99.90
2955;DHT22;1487;51.470;6.938;2022-12-20T16:27:53;10.10;99.90
2955;DHT22;1487;51.470;6.938;2022-12-20T16:30:22;10.10;99.90
2955;DHT22;1487;51.470;6.938;2022-12-20T16:32:49;10.10;99.90
2955;DHT22;1487;51.470;6.938;2022-12-20T16:35:23;10.10;99.90
2955;DHT22;1487;51.470;6.938;2022-12-20T16:37:52;10.10;99.90